createdAt,value
2019-05-05T00:01:45.711Z,4.70
2019-05-05T00:04:21.310Z,4.60
2019-05-05T00:06:49.752Z,4.60
2019-05-05T00:09:18.148Z,4.60
2019-05-05T00:11:50.827Z,4.60
2019-05-05T00:14:39.223Z,4.70
2019-05-05T00:17:18.214Z,4.80
2019-05-05T00:19:46.599Z,4.80
2019-05-05T00:22:15.288Z,4.90
2019-05-05T00:24:44.383Z,4.90
2019-05-05T00:27:14.830Z,4.70
2019-05-05T00:29:45.140Z,4.50
2019-05-05T00:32:15.088Z,4.40
2019-05-05T00:34:44.472Z,4.30
2019-05-05T00:37:14.956Z,4.30
2019-05-05T00:39:45.010Z,4.30
2019-05-05T00:42:15.242Z,4.40
2019-05-05T00:44:44.646Z,4.50
2019-05-05T00:47:31.123Z,4.50
2019-05-05T00:49:59.879Z,4.60
2019-05-05T00:52:28.238Z,4.50
2019-05-05T00:54:56.624Z,4.60
2019-05-05T00:57:24.983Z,4.60
2019-05-05T00:59:54.397Z,4.70
2019-05-05T01:02:27.421Z,4.70
2019-05-05T01:05:06.074Z,4.60
2019-05-05T01:07:35.062Z,4.70
2019-05-05T01:10:05.871Z,4.70
2019-05-05T01:12:34.905Z,4.70
2019-05-05T01:15:04.597Z,4.80
2019-05-05T01:17:34.551Z,4.80
2019-05-05T01:20:06.824Z,4.90
2019-05-05T01:22:34.647Z,5.00
2019-05-05T01:25:05.259Z,5.10
2019-05-05T01:27:34.752Z,5.10
2019-05-05T01:30:06.219Z,5.10
2019-05-05T01:32:36.224Z,5.00
2019-05-05T01:35:06.126Z,5.10
2019-05-05T01:37:36.132Z,5.10
2019-05-05T01:40:24.870Z,5.10
2019-05-05T01:42:54.741Z,5.20
2019-05-05T01:45:24.221Z,5.20
2019-05-05T01:47:54.421Z,5.20
2019-05-05T01:50:24.695Z,5.10
2019-05-05T01:52:52.700Z,5.10
2019-05-05T01:55:21.092Z,5.20
2019-05-05T01:57:49.472Z,5.20
2019-05-05T02:00:17.867Z,5.20
2019-05-05T02:02:46.240Z,5.20
2019-05-05T02:05:14.839Z,5.30
2019-05-05T02:07:44.909Z,5.30
2019-05-05T02:10:15.223Z,5.30
2019-05-05T02:12:44.685Z,5.30
2019-05-05T02:15:14.911Z,5.20
2019-05-05T02:17:44.582Z,5.20
2019-05-05T02:20:34.282Z,5.20
2019-05-05T02:23:04.550Z,5.20
2019-05-05T02:25:34.436Z,5.20
2019-05-05T02:28:04.417Z,5.10
2019-05-05T02:30:50.891Z,5.10
2019-05-05T02:33:20.629Z,5.00
2019-05-05T02:35:49.017Z,5.00
2019-05-05T02:38:17.752Z,4.90
2019-05-05T02:40:46.597Z,5.00
2019-05-05T02:43:16.734Z,4.90
2019-05-05T02:46:10.875Z,5.00
2019-05-05T02:48:39.268Z,4.80
2019-05-05T02:51:07.678Z,4.80
2019-05-05T02:53:39.385Z,4.80
2019-05-05T02:56:09.423Z,4.60
2019-05-05T02:58:38.182Z,4.60
2019-05-05T03:01:24.635Z,4.50
2019-05-05T03:03:54.282Z,4.50
2019-05-05T03:06:23.771Z,4.40
2019-05-05T03:08:54.144Z,4.40
2019-05-05T03:11:23.731Z,4.40
2019-05-05T03:13:53.518Z,4.40
2019-05-05T03:16:23.764Z,4.30
2019-05-05T03:18:54.362Z,4.40
2019-05-05T03:21:24.139Z,4.50
2019-05-05T03:23:54.531Z,4.70
2019-05-05T03:26:23.405Z,4.70
2019-05-05T03:28:54.461Z,4.70
2019-05-05T03:31:26.336Z,4.70
2019-05-05T03:33:54.878Z,4.80
2019-05-05T03:36:24.532Z,4.90
2019-05-05T03:38:54.577Z,4.80
2019-05-05T03:41:31.171Z,4.80
2019-05-05T03:44:04.725Z,4.80
2019-05-05T03:46:34.458Z,4.90
2019-05-05T03:49:04.781Z,4.90
2019-05-05T03:51:34.493Z,5.00
2019-05-05T03:54:04.340Z,5.00
2019-05-05T03:56:34.718Z,5.00
2019-05-05T03:59:04.904Z,5.00
2019-05-05T04:01:41.206Z,5.10
2019-05-05T04:04:27.462Z,5.10
2019-05-05T04:06:57.236Z,5.20
2019-05-05T04:09:25.668Z,5.20
2019-05-05T04:11:54.121Z,5.20
2019-05-05T04:14:24.708Z,5.30
2019-05-05T04:17:03.548Z,5.30
2019-05-05T04:19:36.435Z,5.30
2019-05-05T04:22:04.812Z,5.30
2019-05-05T04:24:34.155Z,5.20
2019-05-05T04:27:04.051Z,5.20
2019-05-05T04:29:34.311Z,5.20
2019-05-05T04:32:04.475Z,5.20
2019-05-05T04:34:34.733Z,5.20
2019-05-05T04:37:04.127Z,5.20
2019-05-05T04:39:34.352Z,5.30
2019-05-05T04:42:04.773Z,5.30
2019-05-05T04:44:34.657Z,5.30
2019-05-05T04:47:07.664Z,5.30
2019-05-05T04:49:40.120Z,5.30
2019-05-05T04:52:14.319Z,5.20
2019-05-05T04:54:44.379Z,5.30
2019-05-05T04:57:14.834Z,5.40
2019-05-05T04:59:44.440Z,5.40
2019-05-05T05:02:17.225Z,5.40
2019-05-05T05:04:59.175Z,5.40
2019-05-05T05:07:27.569Z,5.40
2019-05-05T05:09:55.968Z,5.40
2019-05-05T05:12:24.364Z,5.40
2019-05-05T05:14:54.579Z,5.30
2019-05-05T05:17:24.889Z,5.30
2019-05-05T05:19:54.195Z,5.40
2019-05-05T05:22:24.360Z,5.40
2019-05-05T05:24:54.133Z,5.40
2019-05-05T05:27:24.525Z,5.40
2019-05-05T05:29:54.359Z,5.50
2019-05-05T05:32:24.685Z,5.50
2019-05-05T05:34:54.331Z,5.60
2019-05-05T05:37:23.999Z,5.70
2019-05-05T05:40:03.889Z,5.70
2019-05-05T05:42:33.602Z,5.70
2019-05-05T05:45:04.160Z,5.70
2019-05-05T05:47:50.793Z,5.70
2019-05-05T05:50:37.048Z,5.60
2019-05-05T05:53:05.436Z,5.60
2019-05-05T05:55:34.296Z,5.50
2019-05-05T05:58:04.618Z,5.60
2019-05-05T06:00:34.403Z,5.60
2019-05-05T06:03:03.939Z,5.60
2019-05-05T06:05:34.342Z,5.50
2019-05-05T06:08:04.576Z,5.60
2019-05-05T06:10:33.858Z,5.50
2019-05-05T06:13:04.067Z,5.50
2019-05-05T06:15:33.724Z,5.60
2019-05-05T06:18:04.409Z,5.60
2019-05-05T06:20:34.184Z,5.60
2019-05-05T06:23:04.112Z,5.60
2019-05-05T06:25:48.328Z,5.70
2019-05-05T06:28:16.707Z,5.60
2019-05-05T06:30:45.096Z,5.60
2019-05-05T06:33:13.942Z,5.60
2019-05-05T06:35:44.128Z,5.70
2019-05-05T06:38:13.636Z,5.80
2019-05-05T06:40:46.774Z,5.80
2019-05-05T06:43:25.661Z,5.80
2019-05-05T06:45:58.664Z,5.80
2019-05-05T06:48:27.023Z,5.80
2019-05-05T06:50:55.420Z,5.80
2019-05-05T06:53:23.958Z,5.90
2019-05-05T06:55:54.149Z,5.90
2019-05-05T06:58:24.128Z,6.10
2019-05-05T07:00:54.237Z,6.20
2019-05-05T07:03:24.331Z,6.20
2019-05-05T07:05:53.893Z,6.30
2019-05-05T07:08:24.357Z,6.60
2019-05-05T07:10:54.736Z,6.70
2019-05-05T07:13:24.333Z,6.80
2019-05-05T07:15:54.223Z,7.00
2019-05-05T07:18:24.630Z,7.10
2019-05-05T07:20:54.502Z,7.30
2019-05-05T07:23:24.611Z,7.40
2019-05-05T07:25:54.992Z,7.50
2019-05-05T07:28:23.537Z,7.60
2019-05-05T07:30:51.994Z,7.60
2019-05-05T07:33:20.310Z,7.70
2019-05-05T07:36:01.409Z,7.70
2019-05-05T07:38:26.153Z,7.70
2019-05-05T07:40:54.633Z,7.80
2019-05-05T07:43:23.962Z,7.80
2019-05-05T07:45:54.051Z,8.00
2019-05-05T07:48:24.366Z,8.20
2019-05-05T07:51:01.991Z,8.20
2019-05-05T07:53:24.473Z,8.20
2019-05-05T07:55:54.148Z,7.90
2019-05-05T07:58:24.357Z,8.00
2019-05-05T08:00:54.136Z,8.10
2019-05-05T08:03:23.650Z,8.10
2019-05-05T08:05:53.945Z,8.20
2019-05-05T08:08:24.465Z,8.30
2019-05-05T08:10:54.168Z,8.50
2019-05-05T08:13:24.300Z,8.60
2019-05-05T08:15:59.760Z,8.70
2019-05-05T08:18:26.330Z,8.40
2019-05-05T08:24:04.599Z,8.50
2019-05-05T08:26:34.415Z,8.70
2019-05-05T08:29:04.739Z,8.80
2019-05-05T08:31:53.694Z,8.70
2019-05-05T08:34:22.120Z,8.70
2019-05-05T08:36:50.655Z,8.60
2019-05-05T08:39:21.470Z,8.50
2019-05-05T08:41:49.201Z,8.50
2019-05-05T08:44:18.155Z,8.60
2019-05-05T08:46:46.786Z,8.70
2019-05-05T08:49:15.255Z,8.70
2019-05-05T08:51:44.347Z,8.80
2019-05-05T08:54:14.372Z,8.90
2019-05-05T08:56:44.603Z,9.00
2019-05-05T08:59:14.308Z,8.90
2019-05-05T09:01:44.891Z,9.00
2019-05-05T09:04:14.168Z,9.30
2019-05-05T09:06:43.801Z,9.30
2019-05-05T09:09:14.257Z,9.40
2019-05-05T09:11:43.791Z,9.50
2019-05-05T09:14:14.678Z,9.50
2019-05-05T09:16:44.780Z,9.60
2019-05-05T09:19:15.196Z,9.80
2019-05-05T09:21:44.734Z,10.00
2019-05-05T09:24:31.522Z,10.50
2019-05-05T09:27:14.280Z,10.70
2019-05-05T09:29:44.382Z,10.60
2019-05-05T09:32:13.913Z,10.70
2019-05-05T09:34:43.573Z,10.90
2019-05-05T09:37:14.193Z,10.70
2019-05-05T09:39:43.680Z,10.80
2019-05-05T09:42:14.306Z,10.90
2019-05-05T09:44:43.824Z,11.30
2019-05-05T09:47:13.645Z,11.20
2019-05-05T09:49:44.376Z,11.20
2019-05-05T09:52:13.994Z,11.30
2019-05-05T09:54:43.850Z,10.60
2019-05-05T09:57:14.298Z,10.40
2019-05-05T09:59:44.168Z,10.40
2019-05-05T10:02:12.604Z,10.30
2019-05-05T10:04:41.019Z,10.60
2019-05-05T10:07:09.384Z,10.70
2019-05-05T10:09:37.841Z,10.50
2019-05-05T10:12:06.220Z,10.50
2019-05-05T10:14:34.611Z,10.50
2019-05-05T10:17:04.888Z,10.60
2019-05-05T10:19:33.007Z,10.80
2019-05-05T10:22:01.405Z,10.90
2019-05-05T10:24:33.724Z,11.10
2019-05-05T10:27:01.463Z,11.60
2019-05-05T10:29:29.854Z,11.90
2019-05-05T10:31:58.215Z,11.80
2019-05-05T10:34:26.616Z,11.70
2019-05-05T10:36:55.748Z,12.20
2019-05-05T10:39:25.824Z,12.30
2019-05-05T10:41:56.122Z,12.70
2019-05-05T10:44:24.277Z,13.10
2019-05-05T10:46:53.913Z,13.30
2019-05-05T10:49:24.263Z,13.30
2019-05-05T10:51:54.324Z,13.50
2019-05-05T10:54:23.631Z,13.50
2019-05-05T10:56:53.084Z,13.40
2019-05-05T10:59:23.672Z,13.20
2019-05-05T11:01:51.499Z,12.80
2019-05-05T11:04:19.891Z,12.40
2019-05-05T11:06:48.264Z,12.10
2019-05-05T11:09:16.660Z,11.90
2019-05-05T11:11:45.034Z,11.90
2019-05-05T11:14:14.176Z,12.80
2019-05-05T11:16:43.891Z,13.20
2019-05-05T11:19:13.680Z,13.00
2019-05-05T11:21:43.541Z,12.80
2019-05-05T11:24:12.142Z,12.70
2019-05-05T11:26:40.683Z,12.50
2019-05-05T11:29:09.674Z,12.20
2019-05-05T11:31:38.480Z,12.00
2019-05-05T11:34:14.696Z,11.70
2019-05-05T11:36:47.610Z,11.30
2019-05-05T11:39:16.485Z,11.10
2019-05-05T11:41:45.121Z,11.00
2019-05-05T11:44:15.166Z,10.80
2019-05-05T11:46:44.328Z,10.80
2019-05-05T11:49:13.914Z,10.80
2019-05-05T11:51:43.677Z,10.80
2019-05-05T11:54:14.039Z,10.90
2019-05-05T11:56:44.701Z,10.90
2019-05-05T11:59:14.466Z,11.00
2019-05-05T12:01:44.067Z,11.10
2019-05-05T12:04:14.663Z,11.10
2019-05-05T12:06:44.275Z,11.20
2019-05-05T12:09:14.896Z,11.60
2019-05-05T12:11:44.049Z,12.00
2019-05-05T12:14:14.339Z,12.50
2019-05-05T12:16:43.908Z,12.80
2019-05-05T12:19:13.760Z,13.20
2019-05-05T12:21:44.072Z,13.60
2019-05-05T12:24:14.399Z,13.90
2019-05-05T12:26:50.106Z,14.10
2019-05-05T12:29:18.602Z,14.30
2019-05-05T12:31:48.977Z,14.50
2019-05-05T12:34:17.367Z,14.70
2019-05-05T12:36:45.751Z,14.70
2019-05-05T12:39:14.351Z,14.60
2019-05-05T12:41:42.783Z,14.50
2019-05-05T12:44:14.275Z,14.40
2019-05-05T12:46:47.116Z,14.30
2019-05-05T12:49:15.462Z,14.20
2019-05-05T12:51:44.700Z,13.90
2019-05-05T12:54:14.701Z,13.70
2019-05-05T12:56:44.554Z,13.70
2019-05-05T12:59:14.671Z,13.90
2019-05-05T13:01:44.097Z,14.20
2019-05-05T13:04:14.159Z,14.50
2019-05-05T13:06:44.900Z,14.80
2019-05-05T13:09:13.625Z,14.90
2019-05-05T13:11:43.597Z,14.80
2019-05-05T13:14:14.115Z,14.80
2019-05-05T13:16:59.312Z,14.70
2019-05-05T13:19:29.324Z,14.80
2019-05-05T13:22:05.150Z,15.00
2019-05-05T13:24:54.049Z,14.90
2019-05-05T13:27:26.830Z,14.20
2019-05-05T13:29:55.213Z,13.90
2019-05-05T13:32:24.719Z,13.50
2019-05-05T13:34:54.553Z,13.10
2019-05-05T13:37:24.446Z,12.80
2019-05-05T13:39:53.934Z,12.60
2019-05-05T13:42:24.333Z,12.40
2019-05-05T13:44:57.095Z,12.30
2019-05-05T13:47:25.503Z,12.20
2019-05-05T13:49:55.526Z,12.10
2019-05-05T13:52:24.400Z,12.10
2019-05-05T13:54:54.394Z,12.00
2019-05-05T13:57:24.624Z,12.00
2019-05-05T13:59:54.596Z,12.00
2019-05-05T14:02:24.397Z,11.70
2019-05-05T14:04:54.203Z,11.80
2019-05-05T14:07:23.926Z,12.00
2019-05-05T14:09:54.777Z,12.20
2019-05-05T14:12:24.001Z,12.50
2019-05-05T14:14:54.477Z,12.80
2019-05-05T14:17:22.798Z,13.00
2019-05-05T14:20:04.486Z,13.20
2019-05-05T14:22:21.217Z,13.40
2019-05-05T14:25:07.510Z,13.70
2019-05-05T14:27:35.968Z,13.60
2019-05-05T14:30:08.219Z,13.40
2019-05-05T14:32:38.523Z,13.30
2019-05-05T14:35:09.162Z,13.30
2019-05-05T14:37:39.249Z,13.50
2019-05-05T14:40:07.731Z,13.60
2019-05-05T14:42:36.215Z,13.80
2019-05-05T14:45:05.931Z,13.80
2019-05-05T14:47:34.323Z,13.70
2019-05-05T14:50:04.577Z,13.60
2019-05-05T14:52:32.830Z,13.30
2019-05-05T14:55:03.757Z,13.00
2019-05-05T14:57:33.453Z,12.80
2019-05-05T15:00:01.451Z,12.80
2019-05-05T15:02:29.856Z,12.80
2019-05-05T15:04:59.861Z,12.70
2019-05-05T15:07:39.257Z,12.60
2019-05-05T15:10:18.103Z,12.50
2019-05-05T15:12:48.216Z,12.40
2019-05-05T15:15:16.713Z,12.30
2019-05-05T15:17:45.120Z,12.30
2019-05-05T15:20:13.941Z,12.20
2019-05-05T15:22:43.661Z,12.20
2019-05-05T15:25:12.159Z,12.30
2019-05-05T15:27:40.579Z,12.50
2019-05-05T15:30:09.493Z,12.60
2019-05-05T15:32:37.893Z,12.90
2019-05-05T15:35:06.731Z,13.00
2019-05-05T15:37:35.116Z,13.10
2019-05-05T15:40:04.333Z,13.30
2019-05-05T15:42:33.494Z,13.40
2019-05-05T15:45:03.840Z,13.60
2019-05-05T15:47:34.111Z,13.60
2019-05-05T15:50:04.290Z,13.70
2019-05-05T15:52:32.103Z,13.70
2019-05-05T15:55:00.479Z,13.70
2019-05-05T15:57:28.873Z,13.60
2019-05-05T15:59:57.243Z,13.50
2019-05-05T16:02:25.640Z,13.40
2019-05-05T16:04:54.215Z,13.40
2019-05-05T16:07:24.305Z,13.40
2019-05-05T16:09:53.702Z,13.40
2019-05-05T16:12:31.981Z,13.40
2019-05-05T16:15:10.300Z,13.50
2019-05-05T16:17:53.355Z,13.60
2019-05-05T16:20:29.683Z,13.50
2019-05-05T16:23:16.138Z,13.40
2019-05-05T16:25:46.567Z,13.20
2019-05-05T16:28:14.676Z,13.10
2019-05-05T16:30:44.511Z,13.00
2019-05-05T16:33:13.765Z,12.80
2019-05-05T16:35:43.753Z,12.70
2019-05-05T16:38:14.690Z,12.50
2019-05-05T16:40:44.299Z,12.30
2019-05-05T16:43:14.082Z,12.20
2019-05-05T16:45:44.313Z,12.10
2019-05-05T16:48:12.438Z,12.00
2019-05-05T16:50:40.804Z,11.80
2019-05-05T16:53:10.832Z,11.80
2019-05-05T16:55:49.805Z,11.70
2019-05-05T16:58:18.200Z,11.70
2019-05-05T17:00:46.571Z,11.50
2019-05-05T17:03:14.974Z,11.50
2019-05-05T17:05:46.377Z,11.50
2019-05-05T17:08:14.076Z,11.40
2019-05-05T17:10:43.577Z,11.30
2019-05-05T17:13:24.164Z,11.30
2019-05-05T17:15:57.020Z,11.30
2019-05-05T17:18:35.212Z,11.30
2019-05-05T17:21:04.853Z,11.30
2019-05-05T17:23:34.163Z,11.30
2019-05-05T17:26:02.666Z,11.20
2019-05-05T17:28:31.080Z,11.20
2019-05-05T17:30:59.474Z,11.10
2019-05-05T17:33:27.899Z,11.10
2019-05-05T17:35:56.293Z,11.10
2019-05-05T17:38:24.734Z,11.00
2019-05-05T17:40:54.887Z,11.00
2019-05-05T17:43:40.002Z,11.10
2019-05-05T17:46:15.741Z,11.00
2019-05-05T17:48:48.287Z,11.00
2019-05-05T17:51:36.733Z,10.90
2019-05-05T17:54:19.021Z,10.90
2019-05-05T17:56:47.423Z,10.80
2019-05-05T17:59:15.844Z,10.80
2019-05-05T18:01:44.287Z,10.80
2019-05-05T18:04:13.575Z,10.70
2019-05-05T18:06:46.569Z,10.70
2019-05-05T18:09:25.651Z,10.70
2019-05-05T18:11:58.134Z,10.70
2019-05-05T18:14:34.119Z,10.60
2019-05-05T18:17:04.219Z,10.70
2019-05-05T18:19:34.035Z,10.60
2019-05-05T18:22:02.446Z,10.50
2019-05-05T18:24:30.938Z,10.60
2019-05-05T18:26:59.326Z,10.50
2019-05-05T18:29:27.729Z,10.40
2019-05-05T18:31:56.142Z,10.30
2019-05-05T18:34:24.578Z,10.30
2019-05-05T18:36:54.483Z,10.20
2019-05-05T18:39:24.669Z,10.10
2019-05-05T18:42:06.804Z,10.10
2019-05-05T18:44:36.827Z,10.00
2019-05-05T18:47:17.561Z,10.00
2019-05-05T18:49:43.396Z,9.90
2019-05-05T18:52:13.711Z,10.00
2019-05-05T18:54:43.599Z,9.90
2019-05-05T18:57:13.123Z,9.90
2019-05-05T18:59:41.762Z,9.80
2019-05-05T19:02:29.771Z,9.80
2019-05-05T19:05:05.708Z,9.80
2019-05-05T19:07:35.803Z,9.90
2019-05-05T19:10:06.440Z,9.70
2019-05-05T19:12:34.893Z,9.60
2019-05-05T19:15:04.442Z,9.60
2019-05-05T19:17:34.468Z,9.50
2019-05-05T19:20:05.205Z,9.50
2019-05-05T19:22:33.812Z,9.30
2019-05-05T19:25:15.793Z,9.20
2019-05-05T19:27:46.936Z,9.10
2019-05-05T19:30:16.025Z,9.10
2019-05-05T19:32:44.432Z,9.10
2019-05-05T19:35:12.849Z,9.00
2019-05-05T19:37:41.247Z,8.90
2019-05-05T19:40:09.675Z,8.90
2019-05-05T19:42:38.057Z,8.80
2019-05-05T19:45:07.646Z,8.60
2019-05-05T19:47:36.039Z,8.60
2019-05-05T19:50:21.336Z,8.70
2019-05-05T19:52:49.727Z,8.60
2019-05-05T19:55:18.155Z,8.70
2019-05-05T19:57:46.751Z,8.60
2019-05-05T20:00:15.207Z,8.60
2019-05-05T20:02:43.914Z,8.30
2019-05-05T20:05:13.855Z,8.30
2019-05-05T20:07:43.933Z,8.30
2019-05-05T20:10:14.544Z,8.30
2019-05-05T20:12:44.891Z,8.40
2019-05-05T20:15:14.767Z,8.40
2019-05-05T20:17:44.463Z,8.40
2019-05-05T20:20:13.818Z,8.30
2019-05-05T20:22:44.304Z,8.30
2019-05-05T20:25:13.959Z,8.10
2019-05-05T20:27:42.626Z,8.00
2019-05-05T20:30:11.020Z,8.00
2019-05-05T20:32:43.978Z,8.00
2019-05-05T20:35:16.956Z,7.90
2019-05-05T20:37:46.996Z,7.80
2019-05-05T20:40:17.023Z,7.70
2019-05-05T20:42:45.457Z,7.60
2019-05-05T20:45:15.495Z,7.70
2019-05-05T20:47:44.090Z,7.80
2019-05-05T20:50:12.421Z,7.80
2019-05-05T20:52:40.829Z,7.80
2019-05-05T20:55:09.289Z,7.60
2019-05-05T20:57:37.778Z,7.70
2019-05-05T21:00:07.086Z,7.70
2019-05-05T21:02:35.490Z,7.60
2019-05-05T21:05:06.020Z,7.50
2019-05-05T21:07:34.765Z,7.50
2019-05-05T21:10:04.587Z,7.40
2019-05-05T21:12:41.919Z,7.30
2019-05-05T21:15:04.964Z,7.30
2019-05-05T21:17:33.864Z,7.40
2019-05-05T21:20:04.174Z,7.30
2019-05-05T21:22:39.790Z,7.30
2019-05-05T21:25:25.107Z,7.30
2019-05-05T21:27:53.511Z,7.40
2019-05-05T21:30:23.727Z,7.30
2019-05-05T21:32:51.953Z,7.30
2019-05-05T21:35:20.857Z,7.30
2019-05-05T21:37:49.325Z,7.40
2019-05-05T21:40:18.495Z,7.30
2019-05-05T21:42:46.929Z,7.50
2019-05-05T21:45:15.376Z,7.50
2019-05-05T21:47:44.251Z,7.40
2019-05-05T21:50:14.486Z,7.40
2019-05-05T21:53:01.048Z,7.40
2019-05-05T21:55:37.228Z,7.40
2019-05-05T21:58:07.273Z,7.40
2019-05-05T22:00:49.363Z,7.40
2019-05-05T22:03:28.802Z,7.30
2019-05-05T22:05:57.195Z,7.30
2019-05-05T22:08:25.609Z,7.40
2019-05-05T22:10:54.409Z,7.30
2019-05-05T22:13:22.824Z,7.30
2019-05-05T22:15:51.220Z,7.20
2019-05-05T22:18:19.653Z,7.10
2019-05-05T22:20:52.820Z,7.10
2019-05-05T22:23:22.271Z,7.00
2019-05-05T22:25:50.651Z,6.90
2019-05-05T22:28:19.062Z,6.90
2019-05-05T22:30:47.524Z,7.00
2019-05-05T22:33:15.933Z,7.10
2019-05-05T22:35:44.373Z,7.00
2019-05-05T22:38:13.738Z,7.00
2019-05-05T22:40:44.085Z,6.90
2019-05-05T22:43:14.434Z,6.30
2019-05-05T22:45:45.030Z,6.20
2019-05-05T22:48:14.384Z,6.10
2019-05-05T22:50:43.647Z,6.10
2019-05-05T22:53:14.032Z,6.20
2019-05-05T22:55:43.916Z,6.10
2019-05-05T22:58:14.211Z,6.30
2019-05-05T23:00:43.784Z,6.20
2019-05-05T23:03:16.880Z,5.80
2019-05-05T23:05:54.547Z,5.90
2019-05-05T23:08:24.330Z,6.00
2019-05-05T23:10:54.380Z,6.20
2019-05-05T23:13:23.025Z,6.20
2019-05-05T23:15:54.427Z,6.20
2019-05-05T23:18:25.655Z,6.20
2019-05-05T23:20:58.531Z,6.20
2019-05-05T23:23:45.039Z,6.20
2019-05-05T23:26:15.052Z,6.20
2019-05-05T23:28:44.357Z,6.20
2019-05-05T23:31:15.951Z,6.10
2019-05-05T23:33:43.959Z,6.10
2019-05-05T23:36:14.668Z,6.10
2019-05-05T23:38:44.666Z,6.20
2019-05-05T23:41:14.452Z,6.20
2019-05-05T23:43:42.510Z,6.10
2019-05-05T23:46:10.902Z,5.90
2019-05-05T23:48:39.263Z,5.90
2019-05-05T23:51:07.659Z,5.90
2019-05-05T23:53:36.020Z,5.80
2019-05-05T23:56:04.407Z,5.70
2019-05-05T23:58:34.629Z,5.70
